Time;durP1;ratioP1;P1;durP2;ratioP2;P2;SDS_P1;SDS_P2;PMS_P1;PMS_P2;Temp;Humidity;BMP_temperature;BMP_pressure;BME280_temperature;BME280_humidity;BME280_pressure;Samples;Min_cycle;Max_cycle;Signal;HPM_P1;HPM_P2
2024/04/19 00:01:43;;;;;;;25.43;24.63;;;21.80;1.00;;;;;;2613099;46;20708;-62
2024/04/19 00:04:08;;;;;;;24.90;24.10;;;21.80;1.00;;;;;;2612515;54;20208;-61
2024/04/19 00:06:34;;;;;;;25.40;24.60;;;21.80;1.00;;;;;;2613124;54;20193;-61
2024/04/19 00:09:00;;;;;;;25.23;24.43;;;21.80;1.00;;;;;;2614137;54;20182;-61
2024/04/19 00:11:25;;;;;;;25.50;24.70;;;21.80;1.00;;;;;;2614491;39;20582;-61
2024/04/19 00:13:51;;;;;;;25.90;25.10;;;21.80;1.00;;;;;;2613789;54;20167;-61
2024/04/19 00:16:17;;;;;;;25.57;24.77;;;21.80;1.00;;;;;;2614247;53;20174;-64
2024/04/19 00:18:43;;;;;;;25.33;24.53;;;21.80;1.00;;;;;;2614284;54;20162;-64
2024/04/19 00:21:08;;;;;;;25.47;24.67;;;21.80;1.00;;;;;;2614709;54;20147;-63
2024/04/19 00:23:36;;;;;;;26.07;25.27;;;21.80;1.00;;;;;;2614255;54;20407;-65
2024/04/19 00:26:02;;;;;;;25.90;25.10;;;21.80;1.00;;;;;;2614214;54;20171;-73
2024/04/19 00:28:28;;;;;;;24.70;23.93;;;21.70;1.00;;;;;;2614180;54;20518;-64
2024/04/19 00:30:57;;;;;;;27.27;26.40;;;21.80;1.00;;;;;;2614513;47;21014;-64
2024/04/19 00:33:23;;;;;;;26.07;25.27;;;21.70;1.00;;;;;;2614475;54;20250;-64
2024/04/19 00:35:48;;;;;;;25.10;24.30;;;21.80;1.00;;;;;;2614194;47;20528;-64
2024/04/19 00:38:14;;;;;;;24.37;23.67;;;21.80;1.00;;;;;;2614532;54;20407;-62
2024/04/19 00:40:40;;;;;;;25.23;24.43;;;21.80;1.00;;;;;;2614696;39;20659;-62
2024/04/19 00:43:06;;;;;;;25.10;24.30;;;21.80;1.00;;;;;;2614242;54;20163;-62
2024/04/19 00:45:33;;;;;;;25.10;24.30;;;21.70;1.00;;;;;;2614634;47;20206;-62
2024/04/19 00:48:10;;;;;;;24.50;23.80;;;21.70;1.00;;;;;;2614469;31;20641;-62
2024/04/19 00:50:38;;;;;;;24.90;24.10;;;21.70;1.00;;;;;;2614107;54;20494;-62
2024/04/19 00:53:04;;;;;;;24.30;23.60;;;21.70;1.00;;;;;;2614283;54;20450;-63
2024/04/19 00:55:31;;;;;;;24.37;23.67;;;21.70;1.00;;;;;;2613508;54;20407;-62
2024/04/19 00:57:58;;;;;;;25.33;24.53;;;21.70;1.00;;;;;;2613447;39;20885;-62
2024/04/19 01:00:25;;;;;;;24.93;24.13;;;21.70;1.00;;;;;;2613078;47;20450;-62
2024/04/19 01:02:53;;;;;;;25.33;24.53;;;21.70;1.00;;;;;;2612504;47;20422;-62
2024/04/19 01:05:23;;;;;;;24.73;23.93;;;21.70;1.00;;;;;;2612563;54;21726;-62
2024/04/19 01:07:49;;;;;;;25.37;24.57;;;21.70;1.00;;;;;;2613166;47;20497;-62
2024/04/19 01:10:16;;;;;;;25.40;24.60;;;21.70;1.00;;;;;;2614227;54;20438;-62
2024/04/19 01:12:41;;;;;;;24.83;24.03;;;21.70;1.00;;;;;;2614476;54;20419;-62
2024/04/19 01:15:17;;;;;;;25.87;25.07;;;21.70;1.00;;;;;;2614425;54;20480;-62
2024/04/19 01:17:43;;;;;;;23.63;22.93;;;21.70;1.00;;;;;;2613931;54;20778;-62
2024/04/19 01:20:09;;;;;;;24.70;23.90;;;21.70;1.00;;;;;;2614282;54;20416;-61
2024/04/19 01:22:35;;;;;;;24.90;24.10;;;21.70;1.00;;;;;;2613762;54;20731;-62
2024/04/19 01:25:04;;;;;;;24.83;24.03;;;21.70;1.00;;;;;;2614093;54;20154;-62
2024/04/19 01:27:30;;;;;;;24.80;24.00;;;21.70;1.00;;;;;;2614180;54;20445;-62
2024/04/19 01:29:56;;;;;;;24.37;23.67;;;21.70;1.00;;;;;;2614461;39;21156;-62
2024/04/19 01:32:22;;;;;;;23.83;23.13;;;21.60;1.00;;;;;;2613939;54;20419;-62
2024/04/19 01:34:47;;;;;;;25.17;24.37;;;21.60;1.00;;;;;;2614186;54;20155;-63
2024/04/19 01:37:13;;;;;;;25.40;24.60;;;21.60;1.00;;;;;;2613964;54;20167;-65
2024/04/19 01:39:39;;;;;;;24.40;23.70;;;21.60;1.00;;;;;;2614368;54;20154;-63
2024/04/19 01:42:05;;;;;;;25.03;24.23;;;21.60;1.00;;;;;;2614370;54;20680;-65
2024/04/19 01:44:30;;;;;;;24.97;24.17;;;21.60;1.00;;;;;;2614148;47;20162;-65
2024/04/19 01:46:56;;;;;;;28.87;27.30;;;21.60;1.00;;;;;;2614057;54;20767;-74
2024/04/19 01:49:22;;;;;;;24.80;24.00;;;21.60;1.00;;;;;;2614769;47;20415;-74
2024/04/19 01:51:48;;;;;;;26.80;26.00;;;21.60;1.00;;;;;;2615256;54;20154;-74
2024/04/19 01:54:16;;;;;;;26.20;25.40;;;21.60;1.00;;;;;;2615376;39;20956;-74
2024/04/19 01:56:42;;;;;;;26.30;25.50;;;21.60;1.00;;;;;;2614686;54;20162;-74
2024/04/19 01:59:08;;;;;;;25.90;25.10;;;21.60;1.00;;;;;;2614719;47;20414;-74
2024/04/19 02:01:34;;;;;;;25.90;25.10;;;21.60;1.00;;;;;;2613833;54;20420;-73
2024/04/19 02:04:02;;;;;;;26.00;25.20;;;21.60;1.00;;;;;;2613671;39;21242;-74
2024/04/19 02:06:28;;;;;;;26.10;25.30;;;21.60;1.00;;;;;;2614340;39;20821;-73
2024/04/19 02:08:54;;;;;;;29.23;27.70;;;21.60;1.00;;;;;;2614260;47;20415;-73
2024/04/19 02:11:19;;;;;;;25.60;24.80;;;21.60;1.00;;;;;;2614676;54;20174;-75
2024/04/19 02:13:45;;;;;;;25.60;24.80;;;21.60;1.00;;;;;;2614985;54;20249;-74
2024/04/19 02:16:11;;;;;;;25.80;25.00;;;21.60;1.00;;;;;;2614402;51;20159;-73
2024/04/19 02:18:37;;;;;;;25.70;24.90;;;21.60;1.00;;;;;;2614584;54;20278;-74
2024/04/19 02:21:02;;;;;;;26.00;25.20;;;21.50;1.00;;;;;;2614644;47;20170;-74
2024/04/19 02:23:37;;;;;;;26.30;25.50;;;21.50;1.00;;;;;;2614589;54;20170;-73
2024/04/19 02:26:05;;;;;;;26.10;25.30;;;21.50;1.00;;;;;;2614620;47;20415;-74
2024/04/19 02:31:14;;;;;;;24.47;23.70;;;21.50;1.00;;;;;;2614810;54;20386;-74
2024/04/19 02:33:40;;;;;;;26.17;25.37;;;21.50;1.00;;;;;;2615070;54;20427;-74
2024/04/19 02:36:09;;;;;;;24.83;24.03;;;21.50;1.00;;;;;;2614563;54;20158;-69
2024/04/19 02:38:36;;;;;;;25.37;24.57;;;21.50;1.00;;;;;;2614253;47;20431;-69
2024/04/19 02:41:02;;;;;;;24.90;24.10;;;21.50;1.00;;;;;;2613588;47;20420;-68
2024/04/19 02:43:28;;;;;;;24.90;24.10;;;21.50;1.00;;;;;;2614395;47;20442;-68
2024/04/19 02:45:55;;;;;;;25.90;25.10;;;21.50;1.00;;;;;;2614652;39;20802;-68
2024/04/19 02:48:21;;;;;;;25.60;24.80;;;21.50;1.00;;;;;;2613414;54;20147;-61
2024/04/19 02:50:50;;;;;;;26.80;26.00;;;21.50;1.00;;;;;;2613545;47;20430;-61
2024/04/19 02:53:16;;;;;;;27.10;26.30;;;21.50;1.00;;;;;;2613646;47;20229;-60
2024/04/19 02:55:42;;;;;;;27.03;26.23;;;21.50;1.00;;;;;;2613415;54;20411;-60
2024/04/19 02:58:08;;;;;;;27.30;26.50;;;21.50;1.00;;;;;;2612589;47;20418;-68
2024/04/19 03:00:33;;;;;;;26.20;25.40;;;21.50;1.00;;;;;;2612915;54;20151;-68
2024/04/19 03:02:59;;;;;;;26.43;25.63;;;21.50;1.00;;;;;;2612982;54;20166;-68
2024/04/19 03:05:25;;;;;;;26.87;26.07;;;21.50;1.00;;;;;;2614037;54;20166;-68
2024/04/19 03:07:50;;;;;;;25.30;24.50;;;21.50;1.00;;;;;;2613945;54;20158;-68
2024/04/19 03:10:16;;;;;;;25.57;24.77;;;21.40;1.00;;;;;;2613747;47;20147;-69
2024/04/19 03:12:42;;;;;;;26.30;25.50;;;21.50;1.00;;;;;;2614445;39;20777;-68
2024/04/19 03:15:08;;;;;;;27.00;26.20;;;21.50;1.00;;;;;;2614173;54;20159;-68
2024/04/19 03:17:33;;;;;;;26.17;25.37;;;21.40;1.00;;;;;;2613442;47;20151;-68
2024/04/19 03:19:59;;;;;;;27.03;26.23;;;21.50;1.00;;;;;;2613892;54;20158;-68
2024/04/19 03:22:25;;;;;;;29.50;28.33;;;21.50;1.00;;;;;;2613931;47;20163;-68
2024/04/19 03:24:51;;;;;;;26.23;25.43;;;21.50;1.00;;;;;;2613944;54;20159;-68
2024/04/19 03:27:16;;;;;;;25.60;24.80;;;21.40;1.00;;;;;;2613499;47;20166;-68
2024/04/19 03:29:42;;;;;;;25.40;24.60;;;21.40;1.00;;;;;;2613238;47;20158;-68
2024/04/19 03:32:08;;;;;;;26.13;25.33;;;21.40;1.00;;;;;;2614362;54;20222;-68
2024/04/19 03:34:33;;;;;;;26.40;25.60;;;21.40;1.00;;;;;;2614189;39;20589;-69
2024/04/19 03:36:59;;;;;;;26.20;25.40;;;21.40;1.00;;;;;;2613803;54;20716;-68
2024/04/19 03:39:25;;;;;;;26.90;26.10;;;21.40;1.00;;;;;;2613600;54;20181;-69
2024/04/19 03:41:51;;;;;;;26.30;25.50;;;21.40;1.00;;;;;;2613557;54;20166;-68
2024/04/19 03:47:01;;;;;;;27.30;26.50;;;21.40;1.00;;;;;;2613182;54;20413;-62
2024/04/19 03:49:27;;;;;;;26.63;25.83;;;21.40;1.00;;;;;;2613227;47;20969;-63
2024/04/19 03:51:55;;;;;;;26.67;25.87;;;21.40;1.00;;;;;;2613643;54;20154;-63
2024/04/19 03:54:21;;;;;;;26.50;25.70;;;21.40;1.00;;;;;;2613559;39;20604;-62
2024/04/19 03:56:47;;;;;;;27.93;27.03;;;21.40;1.00;;;;;;2612571;54;20442;-65
2024/04/19 03:59:12;;;;;;;27.00;26.20;;;21.40;1.00;;;;;;2611907;47;20466;-66
2024/04/19 04:01:38;;;;;;;25.80;25.00;;;21.40;1.00;;;;;;2612046;54;20168;-66
2024/04/19 04:04:04;;;;;;;27.20;26.40;;;21.40;1.00;;;;;;2613105;47;20174;-66
2024/04/19 04:06:30;;;;;;;28.63;27.73;;;21.40;1.00;;;;;;2614154;39;20523;-58
2024/04/19 04:08:55;;;;;;;27.50;26.70;;;21.50;1.00;;;;;;2613591;39;20750;-60
2024/04/19 04:11:22;;;;;;;27.77;26.97;;;21.50;1.00;;;;;;2613597;54;20753;-60
2024/04/19 04:13:47;;;;;;;28.00;27.10;;;21.50;1.00;;;;;;2613525;54;20173;-60
2024/04/19 04:16:13;;;;;;;28.80;27.90;;;21.50;1.00;;;;;;2613134;47;20441;-60
2024/04/19 04:18:39;;;;;;;29.17;28.27;;;21.50;1.00;;;;;;2613392;54;20150;-60
2024/04/19 04:21:05;;;;;;;29.00;28.10;;;21.50;1.00;;;;;;2613277;54;20810;-60
2024/04/19 04:23:31;;;;;;;27.93;27.03;;;21.50;1.00;;;;;;2613454;47;20446;-59
2024/04/19 04:25:58;;;;;;;28.57;27.67;;;21.60;1.00;;;;;;2613431;54;20163;-59
2024/04/19 04:28:24;;;;;;;28.90;28.00;;;21.50;1.00;;;;;;2613177;47;20535;-59
2024/04/19 04:30:50;;;;;;;30.07;29.17;;;21.50;1.00;;;;;;2613434;54;20423;-59
2024/04/19 04:33:19;;;;;;;31.27;30.17;;;21.50;1.00;;;;;;2613925;39;20818;-59
2024/04/19 04:35:45;;;;;;;29.17;28.27;;;21.50;1.00;;;;;;2613092;47;20179;-60
2024/04/19 04:38:11;;;;;;;28.00;27.10;;;21.40;1.00;;;;;;2613172;54;20407;-60
2024/04/19 04:40:36;;;;;;;29.50;28.60;;;21.40;1.00;;;;;;2613695;54;20803;-57
2024/04/19 04:43:03;;;;;;;28.33;27.43;;;21.40;1.00;;;;;;2614244;54;20162;-59
2024/04/19 04:45:29;;;;;;;29.87;28.97;;;21.40;1.00;;;;;;2614393;47;20539;-59
2024/04/19 04:47:55;;;;;;;29.50;28.60;;;21.40;1.00;;;;;;2613453;54;20416;-59
2024/04/19 04:50:22;;;;;;;27.97;27.07;;;21.30;1.00;;;;;;2614197;54;20441;-59
2024/04/19 04:52:48;;;;;;;29.50;28.60;;;21.40;1.00;;;;;;2613740;54;20222;-59
2024/04/19 04:55:14;;;;;;;29.53;28.63;;;21.30;1.00;;;;;;2614287;54;20403;-59
2024/04/19 04:57:40;;;;;;;29.03;28.13;;;21.30;1.00;;;;;;2614321;54;20170;-68
2024/04/19 05:00:08;;;;;;;29.17;28.27;;;21.30;1.00;;;;;;2612569;54;20980;-68
2024/04/19 05:02:37;;;;;;;29.70;28.80;;;21.30;1.00;;;;;;2612808;54;20459;-68
2024/04/19 05:05:03;;;;;;;28.50;27.60;;;21.30;1.00;;;;;;2613324;54;20423;-68
2024/04/19 05:07:29;;;;;;;29.60;28.70;;;21.30;1.00;;;;;;2613364;54;20516;-64
2024/04/19 05:09:55;;;;;;;29.33;28.43;;;21.30;1.00;;;;;;2614847;39;20813;-65
2024/04/19 05:12:22;;;;;;;30.33;29.43;;;21.30;1.00;;;;;;2614118;47;20411;-64
2024/04/19 05:14:47;;;;;;;33.03;31.30;;;21.30;1.00;;;;;;2614119;54;20523;-64
2024/04/19 05:17:13;;;;;;;29.60;28.70;;;21.30;1.00;;;;;;2614037;54;20396;-62
2024/04/19 05:19:39;;;;;;;30.27;29.37;;;21.30;1.00;;;;;;2613313;54;20779;-64
2024/04/19 05:22:05;;;;;;;28.57;27.67;;;21.30;1.00;;;;;;2614509;54;20411;-63
2024/04/19 05:24:30;;;;;;;29.47;28.57;;;21.30;1.00;;;;;;2613832;47;20166;-63
2024/04/19 05:26:56;;;;;;;28.30;27.40;;;21.30;1.00;;;;;;2614061;54;20175;-63
2024/04/19 05:29:26;;;;;;;28.77;27.87;;;21.30;1.00;;;;;;2614003;54;20205;-62
2024/04/19 05:31:53;;;;;;;30.17;29.27;;;21.30;1.00;;;;;;2613967;54;20454;-63
2024/04/19 05:34:19;;;;;;;29.50;28.60;;;21.30;1.00;;;;;;2614392;54;20473;-62
2024/04/19 05:36:45;;;;;;;29.63;28.73;;;21.30;1.00;;;;;;2614119;47;20435;-63
2024/04/19 05:39:11;;;;;;;29.83;28.93;;;21.30;1.00;;;;;;2614515;54;20423;-63
2024/04/19 05:41:41;;;;;;;27.93;27.03;;;21.30;1.00;;;;;;2613346;54;20972;-63
2024/04/19 05:44:07;;;;;;;28.77;27.87;;;21.30;1.00;;;;;;2614679;39;20823;-63
2024/04/19 05:46:34;;;;;;;29.80;28.90;;;21.30;1.00;;;;;;2614096;54;20396;-63
2024/04/19 05:48:59;;;;;;;28.73;27.83;;;21.30;1.00;;;;;;2614188;54;20475;-62
2024/04/19 05:51:25;;;;;;;29.50;28.60;;;21.20;1.00;;;;;;2613703;54;20407;-62
2024/04/19 05:53:51;;;;;;;30.33;29.43;;;21.20;1.00;;;;;;2613460;54;20202;-62
2024/04/19 05:56:17;;;;;;;29.60;28.70;;;21.20;1.00;;;;;;2613246;54;20174;-62
2024/04/19 05:58:46;;;;;;;30.87;29.87;;;21.20;1.00;;;;;;2613528;47;20151;-62
2024/04/19 06:01:12;;;;;;;29.70;28.80;;;21.20;1.00;;;;;;2613849;54;20490;-62
2024/04/19 06:03:39;;;;;;;30.00;29.10;;;21.20;1.00;;;;;;2613754;54;20515;-62
2024/04/19 06:06:04;;;;;;;31.70;30.70;;;21.20;1.00;;;;;;2614461;39;20778;-61
2024/04/19 06:08:30;;;;;;;32.20;31.20;;;21.20;1.00;;;;;;2613425;54;20484;-62
2024/04/19 06:10:56;;;;;;;33.00;32.00;;;21.50;1.00;;;;;;2613797;47;20159;-62
2024/04/19 06:13:21;;;;;;;31.57;30.57;;;21.70;1.00;;;;;;2614025;54;20730;-61
2024/04/19 06:15:47;;;;;;;42.07;40.67;;;21.90;1.00;;;;;;2613875;54;20246;-61
2024/04/19 06:18:13;;;;;;;42.70;41.30;;;22.20;1.00;;;;;;2614509;54;20217;-76
2024/04/19 06:20:42;;;;;;;44.77;43.27;;;22.30;1.00;;;;;;2614935;54;20163;-77
2024/04/19 06:23:08;;;;;;;43.13;41.73;;;22.50;1.00;;;;;;2614676;54;20162;-69
2024/04/19 06:25:34;;;;;;;43.40;42.00;;;22.60;1.00;;;;;;2614214;54;20940;-73
2024/04/19 06:27:59;;;;;;;42.67;41.27;;;22.80;1.00;;;;;;2614663;39;20564;-63
2024/04/19 06:30:25;;;;;;;42.60;41.20;;;22.80;1.00;;;;;;2613536;54;20403;-65
2024/04/19 06:32:51;;;;;;;43.40;42.00;;;22.90;1.00;;;;;;2614019;54;20218;-65
2024/04/19 06:35:18;;;;;;;41.47;40.07;;;22.90;1.00;;;;;;2613994;47;20796;-64
2024/04/19 06:37:44;;;;;;;42.03;40.67;;;23.00;1.00;;;;;;2612327;54;20300;-63
2024/04/19 06:40:11;;;;;;;35.37;34.27;;;23.00;1.00;;;;;;2613666;47;20412;-61
2024/04/19 06:42:36;;;;;;;34.50;33.40;;;23.00;1.00;;;;;;2610496;54;20436;-61
2024/04/19 06:45:03;;;;;;;34.80;33.70;;;22.70;1.00;;;;;;2613339;54;20438;-61
2024/04/19 06:47:31;;;;;;;37.33;36.13;;;22.50;1.00;;;;;;2613087;47;20189;-61
2024/04/19 06:49:57;;;;;;;35.20;34.10;;;22.30;1.00;;;;;;2613442;47;20455;-61
2024/04/19 06:52:23;;;;;;;36.30;35.20;;;22.20;1.00;;;;;;2613696;47;20951;-61
2024/04/19 06:54:49;;;;;;;33.67;32.67;;;22.00;1.00;;;;;;2613618;54;20700;-60
2024/04/19 06:57:14;;;;;;;34.50;33.40;;;22.00;1.00;;;;;;2612961;54;20512;-61
2024/04/19 06:59:42;;;;;;;36.10;35.00;;;21.90;1.00;;;;;;2613072;47;20170;-61
2024/04/19 07:02:07;;;;;;;34.60;33.50;;;21.90;1.00;;;;;;2613148;54;20715;-62
2024/04/19 07:04:33;;;;;;;35.10;34.00;;;21.90;1.00;;;;;;2613369;54;20403;-61
2024/04/19 07:06:59;;;;;;;33.40;32.40;;;21.80;1.00;;;;;;2613542;54;20139;-61
2024/04/19 07:09:24;;;;;;;34.73;33.63;;;21.80;1.00;;;;;;2613014;54;20197;-60
2024/04/19 07:11:50;;;;;;;34.60;33.50;;;21.80;1.00;;;;;;2612918;47;20587;-61
2024/04/19 07:14:16;;;;;;;33.37;32.37;;;21.80;1.00;;;;;;2614339;31;20641;-62
2024/04/19 07:16:42;;;;;;;36.17;35.07;;;22.00;1.00;;;;;;2614215;39;20452;-67
2024/04/19 07:19:07;;;;;;;34.60;33.50;;;22.40;1.00;;;;;;2613692;47;20173;-67
2024/04/19 07:21:33;;;;;;;36.90;35.70;;;22.80;1.00;;;;;;2612017;54;20435;-67
2024/04/19 07:23:59;;;;;;;34.53;33.43;;;23.10;1.00;;;;;;2613722;54;20190;-67
2024/04/19 07:26:24;;;;;;;34.93;33.83;;;23.40;1.00;;;;;;2613173;54;20687;-67
2024/04/19 07:28:50;;;;;;;33.93;32.87;;;23.80;1.00;;;;;;2613138;54;20250;-68
2024/04/19 07:31:16;;;;;;;34.37;33.27;;;24.10;1.00;;;;;;2614539;31;20652;-68
2024/04/19 07:33:42;;;;;;;34.53;33.43;;;23.90;1.00;;;;;;2613449;54;20254;-68
2024/04/19 07:36:08;;;;;;;34.80;33.70;;;23.70;1.00;;;;;;2613778;54;20155;-64
2024/04/19 07:38:35;;;;;;;33.70;32.67;;;23.60;1.00;;;;;;2613142;54;20186;-63
2024/04/19 07:41:04;;;;;;;32.70;31.70;;;23.60;1.00;;;;;;2613610;54;20423;-63
2024/04/19 07:43:30;;;;;;;33.67;32.67;;;23.70;1.00;;;;;;2613682;54;20495;-64
2024/04/19 07:45:55;;;;;;;33.60;32.60;;;23.70;1.00;;;;;;2613490;54;20436;-63
2024/04/19 07:48:21;;;;;;;34.07;32.97;;;23.80;1.00;;;;;;2612256;54;20174;-63
2024/04/19 07:50:47;;;;;;;34.70;33.60;;;23.70;1.00;;;;;;2612915;54;20139;-64
2024/04/19 07:53:18;;;;;;;35.00;33.90;;;23.70;1.00;;;;;;2613121;54;20447;-63
2024/04/19 07:55:43;;;;;;;34.27;33.17;;;23.60;1.00;;;;;;2613641;47;20166;-63
2024/04/19 07:58:10;;;;;;;34.60;33.50;;;23.50;1.00;;;;;;2613428;54;20455;-63
2024/04/19 08:00:36;;;;;;;35.77;34.67;;;23.40;1.00;;;;;;2612824;54;20177;-63
2024/04/19 08:03:03;;;;;;;34.10;33.00;;;23.30;1.00;;;;;;2611692;54;20503;-63
2024/04/19 08:05:28;;;;;;;32.97;31.97;;;23.20;1.00;;;;;;2612349;39;20592;-62
2024/04/19 08:07:56;;;;;;;34.50;33.40;;;23.10;1.00;;;;;;2610753;47;20420;-63
2024/04/19 08:10:24;;;;;;;33.57;32.57;;;23.10;1.00;;;;;;2612560;54;20155;-63
2024/04/19 08:12:50;;;;;;;34.00;32.90;;;23.20;1.00;;;;;;2611935;54;20411;-62
2024/04/19 08:15:16;;;;;;;34.03;32.97;;;23.50;1.00;;;;;;2613051;54;20530;-61
2024/04/19 08:17:42;;;;;;;35.30;34.20;;;23.90;1.00;;;;;;2613015;54;20427;-61
2024/04/19 08:20:08;;;;;;;34.00;32.90;;;24.20;1.00;;;;;;2613454;54;20438;-61
2024/04/19 08:22:34;;;;;;;34.17;33.07;;;24.50;1.00;;;;;;2613582;47;20170;-61
2024/04/19 08:25:01;;;;;;;34.03;32.97;;;24.80;1.00;;;;;;2614036;54;20427;-62
2024/04/19 08:27:26;;;;;;;35.00;33.90;;;25.00;1.00;;;;;;2613970;47;20455;-64
2024/04/19 08:29:53;;;;;;;34.13;33.03;;;25.20;1.00;;;;;;2612226;54;20436;-63
2024/04/19 08:32:19;;;;;;;35.20;34.10;;;25.40;1.00;;;;;;2613321;47;20171;-64
2024/04/19 08:34:55;;;;;;;34.80;33.70;;;25.60;1.00;;;;;;2613903;47;20462;-63
2024/04/19 08:37:22;;;;;;;33.50;32.50;;;25.70;1.00;;;;;;2614386;54;20415;-76
2024/04/19 08:39:52;;;;;;;32.70;31.70;;;25.90;1.00;;;;;;2614135;39;20778;-73
2024/04/19 08:42:19;;;;;;;32.60;31.60;;;26.10;1.00;;;;;;2613812;39;20897;-76
2024/04/19 08:44:47;;;;;;;35.43;34.33;;;26.30;1.00;;;;;;2614297;51;20403;-75
2024/04/19 08:47:16;;;;;;;33.00;32.00;;;26.10;1.00;;;;;;2614116;39;21179;-63
2024/04/19 08:49:43;;;;;;;34.00;32.90;;;26.00;1.00;;;;;;2614380;54;20419;-64
2024/04/19 08:52:10;;;;;;;35.00;33.90;;;25.90;1.00;;;;;;2613916;54;20431;-64
2024/04/19 08:54:40;;;;;;;35.73;34.63;;;25.70;1.00;;;;;;2614034;54;20462;-64
2024/04/19 08:57:06;;;;;;;33.93;32.83;;;25.60;1.00;;;;;;2613665;54;20530;-60
2024/04/19 08:59:32;;;;;;;34.63;33.53;;;25.50;1.00;;;;;;2613551;54;20431;-61
2024/04/19 09:01:58;;;;;;;34.07;32.97;;;25.60;1.00;;;;;;2612988;39;20806;-61
2024/04/19 09:04:25;;;;;;;34.60;33.50;;;25.70;1.00;;;;;;2613276;54;20799;-61
2024/04/19 09:06:50;;;;;;;33.43;32.43;;;25.80;1.00;;;;;;2613502;54;20487;-61
2024/04/19 09:09:17;;;;;;;35.20;34.10;;;25.90;1.00;;;;;;2613419;54;20455;-61
2024/04/19 09:11:44;;;;;;;34.60;33.50;;;25.90;1.00;;;;;;2613179;54;20680;-61
2024/04/19 09:14:10;;;;;;;34.87;33.77;;;26.00;1.00;;;;;;2613960;54;20392;-62
2024/04/19 09:16:36;;;;;;;35.40;34.30;;;26.10;1.00;;;;;;2613641;54;20388;-63
2024/04/19 09:19:02;;;;;;;36.67;35.53;;;26.30;1.00;;;;;;2613874;54;20996;-61
2024/04/19 09:21:27;;;;;;;36.30;35.20;;;26.40;1.00;;;;;;2613404;47;20198;-61
2024/04/19 09:23:57;;;;;;;36.50;35.40;;;26.70;1.00;;;;;;2614237;39;20555;-61
2024/04/19 09:26:22;;;;;;;35.23;34.13;;;26.90;1.00;;;;;;2613632;39;20541;-61
2024/04/19 09:28:51;;;;;;;34.77;33.67;;;27.10;1.00;;;;;;2613891;54;20415;-61
2024/04/19 09:31:17;;;;;;;35.50;34.40;;;27.20;1.00;;;;;;2613813;54;20162;-61
2024/04/19 09:33:43;;;;;;;35.60;34.50;;;27.20;1.00;;;;;;2613726;54;20427;-61
2024/04/19 09:36:09;;;;;;;36.00;34.90;;;27.20;1.00;;;;;;2613629;54;20158;-61
2024/04/19 09:38:38;;;;;;;36.10;35.00;;;27.40;1.00;;;;;;2614050;54;20167;-61
2024/04/19 09:41:06;;;;;;;34.20;33.10;;;27.50;1.00;;;;;;2613713;54;20471;-61
2024/04/19 09:43:36;;;;;;;35.77;34.67;;;27.80;1.00;;;;;;2614052;54;20419;-61
2024/04/19 09:46:03;;;;;;;36.60;35.50;;;27.90;1.00;;;;;;2613913;54;20414;-60
2024/04/19 09:48:38;;;;;;;34.97;33.87;;;28.00;1.00;;;;;;2613152;54;20450;-64
2024/04/19 09:51:09;;;;;;;35.93;34.83;;;28.10;1.00;;;;;;2613509;54;21661;-63
2024/04/19 09:53:38;;;;;;;35.40;34.30;;;28.20;1.00;;;;;;2613799;54;20523;-64
2024/04/19 09:56:25;;;;;;;36.13;35.03;;;28.40;1.00;;;;;;2613281;47;20443;-69
2024/04/19 09:58:52;;;;;;;37.53;36.03;;;28.60;1.00;;;;;;2613898;54;20395;-67
2024/04/19 10:01:19;;;;;;;36.27;35.17;;;28.70;1.00;;;;;;2612351;54;20542;-66
2024/04/19 10:03:47;;;;;;;37.30;36.10;;;28.70;1.00;;;;;;2612679;54;20415;-66
2024/04/19 10:06:13;;;;;;;36.43;35.33;;;28.70;1.00;;;;;;2613947;54;20499;-66
2024/04/19 10:08:39;;;;;;;34.97;33.87;;;28.70;1.00;;;;;;2613994;47;20420;-67
2024/04/19 10:11:05;;;;;;;36.73;35.57;;;28.60;1.00;;;;;;2613752;54;20851;-68
2024/04/19 10:13:31;;;;;;;36.87;35.67;;;28.50;1.00;;;;;;2613891;51;20503;-68
2024/04/19 10:15:58;;;;;;;36.20;35.10;;;28.50;1.00;;;;;;2612956;47;20442;-67
2024/04/19 10:18:25;;;;;;;37.40;36.20;;;28.40;1.00;;;;;;2613020;47;20171;-68
2024/04/19 10:20:52;;;;;;;36.07;34.97;;;28.50;1.00;;;;;;2613111;54;20920;-67
2024/04/19 10:23:18;;;;;;;34.70;33.60;;;28.70;1.00;;;;;;2613060;54;20418;-67
2024/04/19 10:25:46;;;;;;;34.87;33.77;;;28.90;1.00;;;;;;2614007;54;20403;-68
2024/04/19 10:28:12;;;;;;;34.17;33.07;;;29.00;1.00;;;;;;2613969;39;20827;-67
2024/04/19 10:30:41;;;;;;;33.37;32.37;;;29.00;1.00;;;;;;2613838;54;20409;-67
2024/04/19 10:33:08;;;;;;;34.20;33.10;;;28.90;1.00;;;;;;2613591;51;20175;-69
2024/04/19 10:35:40;;;;;;;34.50;33.40;;;28.80;1.00;;;;;;2613965;39;20891;-68
2024/04/19 10:38:06;;;;;;;36.20;35.10;;;28.70;1.00;;;;;;2613138;54;20435;-67
2024/04/19 10:40:32;;;;;;;34.10;33.03;;;28.60;1.00;;;;;;2612134;47;20420;-68
2024/04/19 10:43:07;;;;;;;35.00;33.90;;;28.60;1.00;;;;;;2613692;39;20795;-66
2024/04/19 10:45:36;;;;;;;34.50;33.40;;;28.60;1.00;;;;;;2612904;54;20399;-67
2024/04/19 10:48:04;;;;;;;33.00;32.00;;;28.50;1.00;;;;;;2613775;54;20425;-67
2024/04/19 10:50:30;;;;;;;34.03;32.97;;;28.40;1.00;;;;;;2613783;54;20407;-66
2024/04/19 10:52:57;;;;;;;34.60;33.50;;;28.50;1.00;;;;;;2614420;31;20900;-67
2024/04/19 10:55:23;;;;;;;35.63;34.53;;;28.50;1.00;;;;;;2612936;54;20419;-67
2024/04/19 10:57:49;;;;;;;35.37;34.27;;;28.60;1.00;;;;;;2613544;31;20961;-60
2024/04/19 11:00:15;;;;;;;34.40;33.30;;;28.70;1.00;;;;;;2613301;39;20883;-59
2024/04/19 11:02:41;;;;;;;34.93;33.83;;;28.90;1.00;;;;;;2612434;47;20518;-59
2024/04/19 11:05:08;;;;;;;34.97;33.87;;;29.00;1.00;;;;;;2613984;47;20411;-59
2024/04/19 11:07:35;;;;;;;34.97;33.87;;;29.00;1.00;;;;;;2613697;51;20882;-59
2024/04/19 11:10:00;;;;;;;34.30;33.20;;;29.10;1.00;;;;;;2612797;54;20462;-60
2024/04/19 11:12:26;;;;;;;34.07;32.97;;;29.10;1.00;;;;;;2612434;54;20412;-59
2024/04/19 11:14:52;;;;;;;35.03;33.93;;;29.00;1.00;;;;;;2612215;39;20516;-59
2024/04/19 11:17:18;;;;;;;35.07;33.97;;;29.00;1.00;;;;;;2612565;54;20479;-59
2024/04/19 11:19:46;;;;;;;34.87;33.77;;;28.90;1.00;;;;;;2612579;54;20150;-59
2024/04/19 11:22:12;;;;;;;35.23;34.13;;;28.90;1.00;;;;;;2612485;54;20618;-59
2024/04/19 11:24:39;;;;;;;35.20;34.10;;;28.80;1.00;;;;;;2612261;54;20447;-59
2024/04/19 11:27:05;;;;;;;34.37;33.27;;;28.80;1.00;;;;;;2612728;54;20428;-59
2024/04/19 11:29:32;;;;;;;33.63;32.63;;;28.80;1.00;;;;;;2613695;54;20400;-59
2024/04/19 11:32:06;;;;;;;33.63;32.60;;;28.70;1.00;;;;;;2613846;54;20431;-60
2024/04/19 11:34:32;;;;;;;33.97;32.90;;;28.50;1.00;;;;;;2613439;47;20462;-60
2024/04/19 11:37:05;;;;;;;35.20;34.10;;;28.30;1.00;;;;;;2613539;54;20443;-59
2024/04/19 11:39:31;;;;;;;36.53;35.43;;;28.20;1.00;;;;;;2613349;54;20166;-59
2024/04/19 11:41:57;;;;;;;36.50;35.40;;;28.10;1.00;;;;;;2613492;54;20436;-60
2024/04/19 11:44:23;;;;;;;35.80;34.70;;;28.10;1.00;;;;;;2613642;54;20806;-59
2024/04/19 11:46:49;;;;;;;36.90;35.70;;;28.00;1.00;;;;;;2613493;54;20507;-59
2024/04/19 11:49:16;;;;;;;35.47;34.37;;;27.90;1.00;;;;;;2613461;54;21208;-59
2024/04/19 11:51:44;;;;;;;35.03;33.93;;;27.70;1.00;;;;;;2613342;54;20422;-59
2024/04/19 11:54:10;;;;;;;35.70;34.60;;;27.60;1.00;;;;;;2613285;54;20499;-59
2024/04/19 11:56:36;;;;;;;34.93;33.83;;;27.40;1.00;;;;;;2613656;54;20417;-67
2024/04/19 11:59:02;;;;;;;36.20;35.10;;;27.10;1.00;;;;;;2610544;54;21028;-66
2024/04/19 12:01:28;;;;;;;35.63;34.53;;;27.20;1.00;;;;;;2611945;47;20167;-66
2024/04/19 12:03:55;;;;;;;35.10;34.00;;;27.10;1.00;;;;;;2613275;54;20407;-66
2024/04/19 12:06:21;;;;;;;35.70;34.60;;;27.00;1.00;;;;;;2612390;54;20411;-59
2024/04/19 12:08:51;;;;;;;33.10;32.10;;;26.90;1.00;;;;;;2613397;54;20394;-60
2024/04/19 12:11:17;;;;;;;32.70;31.70;;;26.80;1.00;;;;;;2612235;54;20515;-59
2024/04/19 12:13:47;;;;;;;33.17;32.17;;;26.80;1.00;;;;;;2613061;54;20407;-59
2024/04/19 12:16:14;;;;;;;33.50;32.50;;;26.70;1.00;;;;;;2613922;39;20851;-72
2024/04/19 12:18:40;;;;;;;33.97;32.87;;;26.60;1.00;;;;;;2612586;54;20438;-72
2024/04/19 12:21:06;;;;;;;34.20;33.10;;;26.50;1.00;;;;;;2612009;47;20462;-71
2024/04/19 12:23:31;;;;;;;34.83;33.73;;;26.30;1.00;;;;;;2612951;54;20423;-71
2024/04/19 12:25:57;;;;;;;32.77;31.77;;;26.30;1.00;;;;;;2613580;54;20161;-71
2024/04/19 12:28:24;;;;;;;33.33;32.33;;;26.20;1.00;;;;;;2613323;54;20143;-71
2024/04/19 12:30:51;;;;;;;34.53;33.43;;;26.10;1.00;;;;;;2612539;54;20170;-72
2024/04/19 12:33:17;;;;;;;34.70;33.60;;;26.00;1.00;;;;;;2613600;54;20832;-73
2024/04/19 12:35:44;;;;;;;33.40;32.40;;;25.90;1.00;;;;;;2613332;54;20510;-72
2024/04/19 12:38:09;;;;;;;34.70;33.60;;;25.80;1.00;;;;;;2612566;54;20423;-72